createdAt,value
2023-02-05T00:00:19.464Z,96.30
2023-02-05T00:02:50.352Z,97.27
2023-02-05T00:05:24.373Z,96.90
2023-02-05T00:08:00.609Z,96.90
2023-02-05T00:10:32.566Z,97.00
2023-02-05T00:13:03.571Z,98.41
2023-02-05T00:15:34.533Z,97.01
2023-02-05T00:18:05.312Z,97.01
2023-02-05T00:20:35.856Z,97.57
2023-02-05T00:23:06.545Z,98.48
2023-02-05T00:25:37.690Z,99.88
2023-02-05T00:28:08.203Z,98.87
2023-02-05T00:30:41.260Z,97.78
2023-02-05T00:33:14.758Z,97.78
2023-02-05T00:35:47.384Z,99.42
2023-02-05T00:38:21.117Z,99.42
2023-02-05T00:40:55.482Z,100.00
2023-02-05T00:43:25.771Z,99.38
2023-02-05T00:45:56.601Z,99.38
2023-02-05T00:48:29.024Z,98.77
2023-02-05T00:51:07.609Z,99.01
2023-02-05T00:53:38.561Z,99.69
2023-02-05T00:56:11.677Z,99.76
2023-02-05T00:58:47.568Z,100.00
2023-02-05T01:01:19.343Z,98.86
2023-02-05T01:03:52.921Z,100.00
2023-02-05T01:06:21.722Z,100.00
2023-02-05T01:09:00.423Z,99.96
2023-02-05T01:11:30.995Z,99.96
2023-02-05T01:14:01.335Z,100.00
2023-02-05T01:16:32.648Z,100.00
2023-02-05T01:19:04.025Z,100.00
2023-02-05T01:21:34.943Z,99.22
2023-02-05T01:24:05.551Z,98.45
2023-02-05T01:26:36.194Z,98.45
2023-02-05T01:29:06.490Z,98.49
2023-02-05T01:31:36.985Z,97.95
2023-02-05T01:34:07.313Z,97.95
2023-02-05T01:36:38.545Z,97.02
2023-02-05T01:39:08.953Z,97.02
2023-02-05T01:41:39.351Z,96.46
2023-02-05T01:44:18.662Z,97.02
2023-02-05T01:46:49.463Z,96.95
2023-02-05T01:49:31.740Z,96.95
2023-02-05T01:52:05.512Z,95.94
2023-02-05T01:54:40.059Z,97.01
2023-02-05T01:57:19.379Z,95.77
2023-02-05T01:59:51.246Z,96.92
2023-02-05T02:02:21.398Z,96.74
2023-02-05T02:04:54.593Z,95.27
2023-02-05T02:07:25.924Z,95.69
2023-02-05T02:09:56.317Z,95.69
2023-02-05T02:12:30.905Z,95.18
2023-02-05T02:15:04.238Z,95.42
2023-02-05T02:17:37.702Z,95.42
2023-02-05T02:20:31.596Z,96.29
2023-02-05T02:23:07.775Z,96.29
2023-02-05T02:26:17.051Z,94.83
2023-02-05T02:28:53.654Z,94.83
2023-02-05T02:31:35.618Z,95.40
2023-02-05T02:34:43.822Z,95.40
2023-02-05T02:37:26.232Z,95.04
2023-02-05T02:40:14.227Z,95.04
2023-02-05T02:42:49.398Z,93.90
2023-02-05T02:45:22.276Z,93.83
2023-02-05T02:47:55.826Z,94.27
2023-02-05T02:50:31.727Z,93.63
2023-02-05T02:53:08.053Z,95.85
2023-02-05T02:55:43.535Z,95.85
2023-02-05T02:58:29.349Z,94.87
2023-02-05T03:01:02.031Z,95.65
2023-02-05T03:03:35.364Z,95.47
2023-02-05T03:06:08.629Z,96.37
2023-02-05T03:08:50.867Z,96.37
2023-02-05T03:11:22.088Z,96.37
2023-02-05T03:13:54.753Z,95.05
2023-02-05T03:16:27.779Z,94.32
2023-02-05T03:18:59.702Z,96.00
2023-02-05T03:21:38.909Z,95.54
2023-02-05T03:24:30.235Z,95.87
2023-02-05T03:27:00.931Z,97.10
2023-02-05T03:29:34.175Z,97.10
2023-02-05T03:32:23.593Z,95.29
2023-02-05T03:35:20.614Z,95.74
2023-02-05T03:38:14.452Z,95.74
2023-02-05T03:40:47.949Z,95.65
2023-02-05T03:43:26.730Z,94.12
2023-02-05T03:46:32.999Z,94.12
2023-02-05T03:49:18.272Z,93.74
2023-02-05T03:52:00.488Z,95.60
2023-02-05T03:54:54.541Z,95.23
2023-02-05T03:57:27.658Z,94.37
2023-02-05T04:00:01.565Z,95.34
2023-02-05T04:02:32.840Z,95.34
2023-02-05T04:05:03.837Z,94.77
2023-02-05T04:07:35.135Z,94.77
2023-02-05T04:10:05.634Z,95.15
2023-02-05T04:12:37.527Z,95.35
2023-02-05T04:15:08.232Z,94.27
2023-02-05T04:17:39.801Z,94.37
2023-02-05T04:20:13.430Z,94.27
2023-02-05T04:22:43.811Z,93.98
2023-02-05T04:25:14.853Z,93.98
2023-02-05T04:27:45.579Z,94.24
2023-02-05T04:30:16.623Z,94.24
2023-02-05T04:32:48.020Z,94.75
2023-02-05T04:35:19.565Z,95.06
2023-02-05T04:37:49.970Z,96.67
2023-02-05T04:40:21.109Z,95.29
2023-02-05T04:42:53.854Z,95.29
2023-02-05T04:45:24.152Z,94.53
2023-02-05T04:47:54.638Z,96.47
2023-02-05T04:50:27.713Z,95.93
2023-02-05T04:53:00.755Z,95.29
2023-02-05T04:55:35.864Z,95.82
2023-02-05T04:58:07.706Z,95.82
2023-02-05T05:00:38.071Z,95.87
2023-02-05T05:03:09.866Z,95.15
2023-02-05T05:05:40.280Z,95.15
2023-02-05T05:08:10.741Z,94.43
2023-02-05T05:10:41.054Z,95.30
2023-02-05T05:13:11.497Z,93.50
2023-02-05T05:15:42.204Z,94.77
2023-02-05T05:18:12.366Z,95.93
2023-02-05T05:20:42.917Z,95.93
2023-02-05T05:23:13.864Z,96.77
2023-02-05T05:25:48.927Z,97.98
2023-02-05T05:28:19.956Z,97.95
2023-02-05T05:30:50.304Z,97.95
2023-02-05T05:33:23.727Z,95.27
2023-02-05T05:35:53.932Z,95.29
2023-02-05T05:38:24.264Z,96.38
2023-02-05T05:40:54.597Z,96.51
2023-02-05T05:43:24.945Z,96.49
2023-02-05T05:45:55.166Z,97.35
2023-02-05T05:48:26.582Z,95.97
2023-02-05T05:50:57.164Z,95.97
2023-02-05T05:53:28.254Z,95.64
2023-02-05T05:55:58.527Z,97.25
2023-02-05T05:58:28.828Z,97.99
2023-02-05T06:00:59.421Z,97.35
2023-02-05T06:03:30.135Z,97.35
2023-02-05T06:06:05.200Z,97.35
2023-02-05T06:08:36.822Z,96.21
2023-02-05T06:11:07.014Z,96.13
2023-02-05T06:13:38.007Z,96.13
2023-02-05T06:16:08.357Z,96.50
2023-02-05T06:18:39.308Z,96.58
2023-02-05T06:21:09.668Z,96.64
2023-02-05T06:23:41.449Z,96.64
2023-02-05T06:26:11.862Z,96.74
2023-02-05T06:28:42.324Z,96.74
2023-02-05T06:31:15.034Z,96.95
2023-02-05T06:33:46.089Z,96.12
2023-02-05T06:36:19.773Z,96.12
2023-02-05T06:38:50.217Z,98.08
2023-02-05T06:41:20.661Z,97.52
2023-02-05T06:43:51.144Z,96.27
2023-02-05T06:46:21.455Z,96.85
2023-02-05T06:48:53.363Z,97.45
2023-02-05T06:51:23.914Z,97.45
2023-02-05T06:53:54.426Z,98.30
2023-02-05T06:56:28.708Z,97.85
2023-02-05T06:58:59.360Z,99.21
2023-02-05T07:01:31.742Z,98.12
2023-02-05T07:04:02.038Z,98.12
2023-02-05T07:06:32.483Z,98.40
2023-02-05T07:09:03.767Z,98.40
2023-02-05T07:11:35.289Z,98.76
2023-02-05T07:14:05.547Z,98.76
2023-02-05T07:16:36.053Z,98.33
2023-02-05T07:19:06.459Z,97.62
2023-02-05T07:21:39.134Z,97.62
2023-02-05T07:24:12.416Z,96.80
2023-02-05T07:26:42.969Z,96.90
2023-02-05T07:29:14.848Z,96.98
2023-02-05T07:31:45.249Z,98.47
2023-02-05T07:34:15.747Z,98.41
2023-02-05T07:36:46.190Z,98.41
2023-02-05T07:39:16.418Z,97.11
2023-02-05T07:41:48.674Z,95.93
2023-02-05T07:44:22.030Z,94.77
2023-02-05T07:46:52.701Z,95.30
2023-02-05T07:49:23.463Z,95.30
2023-02-05T07:51:54.357Z,94.04
2023-02-05T07:54:24.829Z,93.98
2023-02-05T07:56:55.393Z,95.56
2023-02-05T07:59:25.817Z,95.56
2023-02-05T08:01:56.269Z,95.66
2023-02-05T08:04:26.968Z,97.10
2023-02-05T08:06:57.741Z,93.91
2023-02-05T08:09:28.125Z,94.66
2023-02-05T08:11:58.448Z,93.05
2023-02-05T08:14:32.752Z,93.90
2023-02-05T08:17:05.846Z,93.92
2023-02-05T08:19:36.395Z,92.52
2023-02-05T08:22:06.913Z,91.48
2023-02-05T08:24:37.245Z,91.48
2023-02-05T08:27:07.608Z,90.69
2023-02-05T08:29:37.863Z,91.90
2023-02-05T08:32:08.597Z,92.83
2023-02-05T08:34:39.156Z,92.83
2023-02-05T08:37:10.657Z,91.94
2023-02-05T08:39:40.877Z,92.00
2023-02-05T08:42:11.907Z,91.90
2023-02-05T08:44:42.234Z,91.19
2023-02-05T08:47:14.036Z,91.03
2023-02-05T08:49:45.243Z,89.22
2023-02-05T08:52:16.640Z,89.07
2023-02-05T08:54:49.447Z,89.07
2023-02-05T08:57:19.901Z,88.66
2023-02-05T08:59:51.277Z,86.19
2023-02-05T09:02:21.596Z,87.15
2023-02-05T09:05:01.858Z,86.06
2023-02-05T09:07:24.973Z,84.08
2023-02-05T09:09:55.262Z,84.94
2023-02-05T09:12:26.849Z,85.08
2023-02-05T09:15:00.261Z,85.86
2023-02-05T09:17:30.972Z,85.08
2023-02-05T09:20:02.942Z,83.69
2023-02-05T09:22:34.892Z,82.59
2023-02-05T09:25:06.801Z,84.66
2023-02-05T09:27:37.422Z,84.66
2023-02-05T09:30:08.112Z,82.08
2023-02-05T09:32:40.062Z,82.08
2023-02-05T09:35:10.528Z,81.42
2023-02-05T09:37:41.836Z,77.83
2023-02-05T09:40:25.484Z,76.47
2023-02-05T09:42:50.535Z,77.21
2023-02-05T09:45:32.391Z,77.75
2023-02-05T09:48:31.829Z,79.12
2023-02-05T09:51:03.241Z,79.12
2023-02-05T09:53:42.382Z,80.09
2023-02-05T09:56:17.333Z,80.01
2023-02-05T09:59:00.747Z,80.50
2023-02-05T10:01:37.240Z,81.81
2023-02-05T10:04:19.033Z,83.30
2023-02-05T10:07:05.165Z,82.84
2023-02-05T10:09:45.804Z,82.84
2023-02-05T10:12:55.069Z,81.95
2023-02-05T10:15:35.501Z,82.48
2023-02-05T10:18:12.409Z,82.48
2023-02-05T10:21:16.875Z,82.11
2023-02-05T10:24:10.996Z,81.82
2023-02-05T10:26:44.215Z,81.82
2023-02-05T10:29:38.036Z,82.21
2023-02-05T10:32:22.524Z,83.08
2023-02-05T10:35:01.780Z,83.08
2023-02-05T10:37:42.568Z,80.17
2023-02-05T10:40:19.491Z,80.17
2023-02-05T10:43:05.226Z,79.74
2023-02-05T10:45:36.289Z,77.34
2023-02-05T10:48:27.996Z,75.59
2023-02-05T10:51:07.522Z,75.25
2023-02-05T10:53:38.825Z,76.11
2023-02-05T10:56:16.302Z,77.77
2023-02-05T10:58:55.512Z,79.32
2023-02-05T11:01:37.452Z,79.32
2023-02-05T11:04:16.808Z,79.58
2023-02-05T11:06:50.725Z,80.22
2023-02-05T11:12:54.853Z,78.78
2023-02-05T11:15:32.891Z,78.04
2023-02-05T11:18:10.540Z,80.25
2023-02-05T11:20:43.957Z,80.25
2023-02-05T11:23:28.091Z,79.42
2023-02-05T11:29:31.464Z,81.46
2023-02-05T11:32:03.654Z,81.46
2023-02-05T11:34:39.029Z,81.58
2023-02-05T11:37:21.011Z,81.83
2023-02-05T11:39:53.595Z,82.11
2023-02-05T11:42:32.719Z,82.11
2023-02-05T11:45:22.333Z,82.74
2023-02-05T11:47:53.116Z,84.42
2023-02-05T11:57:23.771Z,85.89
2023-02-05T12:00:51.979Z,85.29
2023-02-05T12:02:50.068Z,85.72
2023-02-05T12:05:52.387Z,84.80
2023-02-05T12:15:29.295Z,86.56
2023-02-05T12:17:34.075Z,86.56
2023-02-05T12:26:40.368Z,81.89
2023-02-05T12:29:42.351Z,80.31
2023-02-05T12:32:24.116Z,80.31
2023-02-05T12:35:16.754Z,79.32
2023-02-05T12:38:12.408Z,78.17
2023-02-05T12:41:07.957Z,79.00
2023-02-05T12:44:03.524Z,78.34
2023-02-05T12:46:49.147Z,78.87
2023-02-05T12:49:43.479Z,78.87
2023-02-05T12:52:15.756Z,78.70
2023-02-05T12:55:07.015Z,79.62
2023-02-05T12:57:50.338Z,78.24
2023-02-05T13:09:31.935Z,78.34
2023-02-05T13:12:26.260Z,78.34
2023-02-05T13:15:00.892Z,78.34
2023-02-05T13:17:34.650Z,78.88
2023-02-05T13:20:09.548Z,79.48
2023-02-05T13:22:45.296Z,80.03
2023-02-05T13:28:48.607Z,80.15
2023-02-05T13:28:57.097Z,79.48
2023-02-05T13:34:28.234Z,79.16
2023-02-05T13:37:19.868Z,81.48
2023-02-05T13:40:04.921Z,80.25
2023-02-05T13:42:47.000Z,79.52
2023-02-05T13:45:46.090Z,79.92
2023-02-05T13:48:55.899Z,80.71
2023-02-05T13:51:54.361Z,78.67
2023-02-05T13:59:21.835Z,79.98
2023-02-05T14:01:48.528Z,78.04
2023-02-05T14:31:05.679Z,74.80
2023-02-05T14:33:46.457Z,75.52
2023-02-05T14:36:31.656Z,76.49
2023-02-05T14:39:21.357Z,77.04
2023-02-05T14:41:58.604Z,77.22
2023-02-05T14:47:46.593Z,78.51
2023-02-05T14:50:26.785Z,76.66
2023-02-05T14:53:03.183Z,76.66
2023-02-05T14:55:39.469Z,77.08
2023-02-05T15:01:35.144Z,78.03
2023-02-05T15:17:36.919Z,78.02
2023-02-05T15:34:33.495Z,82.27
2023-02-05T15:50:15.638Z,87.64
2023-02-05T16:23:07.302Z,86.64
2023-02-05T16:31:57.616Z,85.48
2023-02-05T16:34:49.370Z,85.60
2023-02-05T16:37:18.643Z,85.76
2023-02-05T16:53:59.423Z,85.34
2023-02-05T17:18:52.796Z,83.50
2023-02-05T17:36:43.966Z,83.84
2023-02-05T17:39:19.310Z,83.84
2023-02-05T17:41:48.456Z,84.53
2023-02-05T17:50:30.872Z,85.77
2023-02-05T17:53:13.624Z,84.38
2023-02-05T17:56:15.353Z,84.52
2023-02-05T17:58:39.371Z,84.52
2023-02-05T18:01:17.688Z,86.80
2023-02-05T18:03:50.265Z,86.80
2023-02-05T18:06:25.552Z,86.68
2023-02-05T18:09:00.409Z,86.65
2023-02-05T18:11:48.609Z,87.10
2023-02-05T18:14:33.883Z,87.15
2023-02-05T18:17:19.822Z,87.29
2023-02-05T18:19:50.534Z,87.63
2023-02-05T18:25:38.593Z,88.15
2023-02-05T18:28:16.512Z,89.00
2023-02-05T18:31:07.243Z,89.54
2023-02-05T18:33:49.852Z,88.04
2023-02-05T18:36:47.524Z,88.99
2023-02-05T18:38:58.958Z,88.99
2023-02-05T18:41:46.529Z,87.33
2023-02-05T18:44:16.947Z,87.30
2023-02-05T18:46:50.904Z,89.64
2023-02-05T18:49:23.249Z,88.45
2023-02-05T18:52:00.294Z,86.69
2023-02-05T18:55:03.702Z,86.48
2023-02-05T18:57:42.180Z,87.19
2023-02-05T19:00:35.731Z,87.13
2023-02-05T19:03:09.715Z,84.68
2023-02-05T19:05:40.858Z,84.68
2023-02-05T19:08:22.672Z,85.91
2023-02-05T19:11:23.818Z,87.10
2023-02-05T19:14:36.988Z,85.87
2023-02-05T19:17:03.056Z,85.16
2023-02-05T19:19:39.104Z,85.09
2023-02-05T19:22:19.121Z,86.25
2023-02-05T19:25:03.672Z,85.56
2023-02-05T19:27:39.324Z,85.56
2023-02-05T19:30:14.765Z,86.19
2023-02-05T19:32:59.251Z,85.24
2023-02-05T19:35:25.556Z,85.82
2023-02-05T19:38:06.678Z,85.82
2023-02-05T19:40:53.314Z,85.31
2023-02-05T19:43:32.274Z,83.91
2023-02-05T19:46:12.079Z,84.35
2023-02-05T19:48:45.046Z,84.35
2023-02-05T19:51:16.000Z,84.11
2023-02-05T19:53:51.582Z,86.22
2023-02-05T19:56:42.881Z,86.48
2023-02-05T19:59:14.525Z,86.48
2023-02-05T20:01:55.581Z,85.40
2023-02-05T20:04:39.130Z,85.78
2023-02-05T20:08:50.995Z,85.78
2023-02-05T20:15:42.301Z,87.21
2023-02-05T20:18:57.841Z,87.76
2023-02-05T20:22:29.546Z,86.97
2023-02-05T20:24:48.614Z,86.97
2023-02-05T20:27:23.546Z,87.72
2023-02-05T20:30:07.446Z,87.72
2023-02-05T20:33:15.566Z,88.18
2023-02-05T20:38:19.364Z,88.30
2023-02-05T20:41:05.707Z,87.91
2023-02-05T20:43:26.685Z,88.34
2023-02-05T20:46:01.984Z,88.34
2023-02-05T20:48:34.145Z,89.20
2023-02-05T20:51:13.362Z,89.44
2023-02-05T20:53:50.724Z,87.20
2023-02-05T20:56:22.884Z,87.20
2023-02-05T20:58:57.286Z,87.57
2023-02-05T21:01:35.261Z,86.72
2023-02-05T21:04:10.101Z,86.99
2023-02-05T21:10:13.593Z,90.01
2023-02-05T21:12:54.692Z,90.01
2023-02-05T21:15:31.861Z,86.92
2023-02-05T21:18:03.565Z,86.92
2023-02-05T21:20:35.588Z,86.72
2023-02-05T21:23:16.349Z,87.42
2023-02-05T21:25:44.868Z,87.61
2023-02-05T21:28:17.517Z,88.50
2023-02-05T21:31:14.505Z,87.42
2023-02-05T21:33:50.588Z,87.89
2023-02-05T21:36:24.837Z,88.73
2023-02-05T21:39:02.843Z,88.48
2023-02-05T21:41:35.337Z,88.48
2023-02-05T21:44:06.596Z,87.52
2023-02-05T21:46:52.168Z,89.07
2023-02-05T21:49:28.011Z,89.22
2023-02-05T21:51:58.599Z,88.58
2023-02-05T21:54:34.351Z,88.40
2023-02-05T21:57:04.906Z,88.86
2023-02-05T21:59:41.875Z,88.86
2023-02-05T22:02:13.292Z,88.07
2023-02-05T22:04:44.372Z,89.72
2023-02-05T22:07:14.557Z,89.99
2023-02-05T22:09:45.732Z,89.99
2023-02-05T22:12:18.968Z,90.16
2023-02-05T22:14:49.091Z,90.39
2023-02-05T22:17:19.438Z,89.52
2023-02-05T22:19:51.018Z,89.52
2023-02-05T22:22:22.090Z,90.23
2023-02-05T22:24:53.092Z,88.65
2023-02-05T22:27:23.410Z,88.65
2023-02-05T22:29:54.361Z,88.59
2023-02-05T22:32:24.703Z,89.08
2023-02-05T22:34:55.134Z,89.91
2023-02-05T22:37:25.866Z,90.12
2023-02-05T22:39:56.150Z,90.12
2023-02-05T22:42:26.812Z,90.02
2023-02-05T22:44:57.514Z,90.41
2023-02-05T22:47:28.756Z,91.23
2023-02-05T22:50:09.621Z,91.23
2023-02-05T22:52:43.152Z,90.32
2023-02-05T22:55:13.488Z,90.32
2023-02-05T22:58:03.326Z,89.97
2023-02-05T23:00:34.686Z,90.76
2023-02-05T23:03:23.102Z,90.76
2023-02-05T23:06:03.609Z,90.62
2023-02-05T23:08:34.521Z,91.08
2023-02-05T23:11:10.114Z,91.86
2023-02-05T23:13:41.915Z,91.33
2023-02-05T23:16:24.377Z,90.91
2023-02-05T23:18:57.541Z,89.99
2023-02-05T23:21:30.619Z,89.99
2023-02-05T23:24:01.754Z,91.03
2023-02-05T23:26:35.007Z,91.03
2023-02-05T23:29:07.148Z,90.07
2023-02-05T23:31:38.198Z,90.07
2023-02-05T23:34:11.225Z,90.12
2023-02-05T23:36:43.055Z,88.65
2023-02-05T23:39:13.395Z,87.83
2023-02-05T23:41:47.085Z,87.83
2023-02-05T23:44:28.680Z,88.75
2023-02-05T23:46:59.660Z,89.04
2023-02-05T23:49:30.670Z,88.72
2023-02-05T23:52:04.650Z,88.41
2023-02-05T23:54:37.700Z,88.95
2023-02-05T23:57:07.971Z,86.21
2023-02-05T23:59:38.092Z,87.15
